sensor_id;sensor_type;location;lat;lon;timestamp;temperature;humidity
22716;DHT22;11525;51.152;4.456;2022-10-16T00:01:47;14.60;99.90
22716;DHT22;11525;51.152;4.456;2022-10-16T00:04:14;14.50;99.90
22716;DHT22;11525;51.152;4.456;2022-10-16T00:06:39;14.50;99.90
22716;DHT22;11525;51.152;4.456;2022-10-16T00:09:05;14.60;99.90
22716;DHT22;11525;51.152;4.456;2022-10-16T00:11:37;14.50;99.90
22716;DHT22;11525;51.152;4.456;2022-10-16T00:14:06;14.50;99.90
22716;DHT22;11525;51.152;4.456;2022-10-16T00:16:32;14.40;99.90
22716;DHT22;11525;51.152;4.456;2022-10-16T00:18:59;14.40;99.90
22716;DHT22;11525;51.152;4.456;2022-10-16T00:21:27;14.50;99.90
22716;DHT22;11525;51.152;4.456;2022-10-16T00:24:03;14.50;99.90
22716;DHT22;11525;51.152;4.456;2022-10-16T00:26:31;14.60;99.90
22716;DHT22;11525;51.152;4.456;2022-10-16T00:28:57;14.70;99.90
22716;DHT22;11525;51.152;4.456;2022-10-16T00:31:24;14.70;99.90
22716;DHT22;11525;51.152;4.456;2022-10-16T00:33:50;14.60;99.90
22716;DHT22;11525;51.152;4.456;2022-10-16T00:36:18;14.70;99.90
22716;DHT22;11525;51.152;4.456;2022-10-16T00:38:45;14.70;99.90
22716;DHT22;11525;51.152;4.456;2022-10-16T00:41:15;14.80;99.90
22716;DHT22;11525;51.152;4.456;2022-10-16T00:43:56;14.80;99.90
22716;DHT22;11525;51.152;4.456;2022-10-16T00:49:03;14.60;99.90
22716;DHT22;11525;51.152;4.456;2022-10-16T00:51:37;14.60;99.90
22716;DHT22;11525;51.152;4.456;2022-10-16T00:54:08;14.60;99.90
22716;DHT22;11525;51.152;4.456;2022-10-16T00:56:34;14.60;99.90
22716;DHT22;11525;51.152;4.456;2022-10-16T00:59:04;14.50;99.90
22716;DHT22;11525;51.152;4.456;2022-10-16T01:01:33;14.60;99.90
22716;DHT22;11525;51.152;4.456;2022-10-16T01:03:58;14.40;99.90
22716;DHT22;11525;51.152;4.456;2022-10-16T01:06:32;14.30;99.90
22716;DHT22;11525;51.152;4.456;2022-10-16T01:12:08;14.30;99.90
22716;DHT22;11525;51.152;4.456;2022-10-16T01:14:40;14.20;99.90
22716;DHT22;11525;51.152;4.456;2022-10-16T01:17:12;14.40;99.90
22716;DHT22;11525;51.152;4.456;2022-10-16T01:20:10;14.30;99.90
22716;DHT22;11525;51.152;4.456;2022-10-16T01:22:56;14.10;99.90
22716;DHT22;11525;51.152;4.456;2022-10-16T01:28:34;14.10;99.90
22716;DHT22;11525;51.152;4.456;2022-10-16T01:31:02;14.10;99.90
22716;DHT22;11525;51.152;4.456;2022-10-16T01:33:34;14.10;99.90
22716;DHT22;11525;51.152;4.456;2022-10-16T01:36:09;14.00;99.90
22716;DHT22;11525;51.152;4.456;2022-10-16T01:38:38;14.00;99.90
22716;DHT22;11525;51.152;4.456;2022-10-16T01:43:50;14.20;99.90
22716;DHT22;11525;51.152;4.456;2022-10-16T01:46:20;14.20;99.90
22716;DHT22;11525;51.152;4.456;2022-10-16T01:48:46;14.10;99.90
22716;DHT22;11525;51.152;4.456;2022-10-16T01:51:15;14.00;99.90
22716;DHT22;11525;51.152;4.456;2022-10-16T01:53:43;14.00;99.90
22716;DHT22;11525;51.152;4.456;2022-10-16T01:56:13;13.90;99.90
22716;DHT22;11525;51.152;4.456;2022-10-16T01:58:47;13.90;99.90
22716;DHT22;11525;51.152;4.456;2022-10-16T02:01:17;13.90;99.90
22716;DHT22;11525;51.152;4.456;2022-10-16T02:03:45;13.90;99.90
22716;DHT22;11525;51.152;4.456;2022-10-16T02:06:12;13.80;99.90
22716;DHT22;11525;51.152;4.456;2022-10-16T02:08:38;13.80;99.90
22716;DHT22;11525;51.152;4.456;2022-10-16T02:11:06;13.80;99.90
22716;DHT22;11525;51.152;4.456;2022-10-16T02:13:55;13.80;99.90
22716;DHT22;11525;51.152;4.456;2022-10-16T02:16:33;13.80;99.90
22716;DHT22;11525;51.152;4.456;2022-10-16T02:18:59;13.80;99.90
22716;DHT22;11525;51.152;4.456;2022-10-16T02:27:07;13.80;99.90
22716;DHT22;11525;51.152;4.456;2022-10-16T02:29:39;13.70;99.90
22716;DHT22;11525;51.152;4.456;2022-10-16T02:32:10;13.70;99.90
22716;DHT22;11525;51.152;4.456;2022-10-16T02:34:39;13.70;99.90
22716;DHT22;11525;51.152;4.456;2022-10-16T02:37:06;13.70;99.90
22716;DHT22;11525;51.152;4.456;2022-10-16T02:39:33;13.70;99.90
22716;DHT22;11525;51.152;4.456;2022-10-16T02:41:59;13.70;99.90
22716;DHT22;11525;51.152;4.456;2022-10-16T02:44:24;13.60;99.90
22716;DHT22;11525;51.152;4.456;2022-10-16T02:46:50;13.70;99.90
22716;DHT22;11525;51.152;4.456;2022-10-16T02:49:16;13.70;99.90
22716;DHT22;11525;51.152;4.456;2022-10-16T02:51:43;13.70;99.90
22716;DHT22;11525;51.152;4.456;2022-10-16T02:54:09;13.70;99.90
22716;DHT22;11525;51.152;4.456;2022-10-16T02:56:34;13.70;99.90
22716;DHT22;11525;51.152;4.456;2022-10-16T02:59:00;13.80;99.90
22716;DHT22;11525;51.152;4.456;2022-10-16T03:01:26;13.80;99.90
22716;DHT22;11525;51.152;4.456;2022-10-16T03:03:51;13.80;99.90
22716;DHT22;11525;51.152;4.456;2022-10-16T03:06:17;13.90;99.90
22716;DHT22;11525;51.152;4.456;2022-10-16T03:08:43;13.80;99.90
22716;DHT22;11525;51.152;4.456;2022-10-16T03:11:08;13.80;99.90
22716;DHT22;11525;51.152;4.456;2022-10-16T03:13:34;13.90;99.90
22716;DHT22;11525;51.152;4.456;2022-10-16T03:16:00;13.80;99.90
22716;DHT22;11525;51.152;4.456;2022-10-16T03:18:25;13.80;99.90
22716;DHT22;11525;51.152;4.456;2022-10-16T03:20:51;13.80;99.90
22716;DHT22;11525;51.152;4.456;2022-10-16T03:23:16;13.80;99.90
22716;DHT22;11525;51.152;4.456;2022-10-16T03:25:42;13.80;99.90
22716;DHT22;11525;51.152;4.456;2022-10-16T03:28:08;13.90;99.90
22716;DHT22;11525;51.152;4.456;2022-10-16T03:30:33;13.90;99.90
22716;DHT22;11525;51.152;4.456;2022-10-16T03:32:59;13.90;99.90
22716;DHT22;11525;51.152;4.456;2022-10-16T03:35:25;13.90;99.90
22716;DHT22;11525;51.152;4.456;2022-10-16T03:37:51;13.90;99.90
22716;DHT22;11525;51.152;4.456;2022-10-16T03:40:17;13.90;99.90
22716;DHT22;11525;51.152;4.456;2022-10-16T03:42:43;13.90;99.90
22716;DHT22;11525;51.152;4.456;2022-10-16T03:45:10;14.00;99.90
22716;DHT22;11525;51.152;4.456;2022-10-16T03:47:36;14.00;99.90
22716;DHT22;11525;51.152;4.456;2022-10-16T03:50:03;13.90;99.90
22716;DHT22;11525;51.152;4.456;2022-10-16T03:52:29;13.80;99.90
22716;DHT22;11525;51.152;4.456;2022-10-16T03:54:54;13.90;99.90
22716;DHT22;11525;51.152;4.456;2022-10-16T03:57:21;13.90;99.90
22716;DHT22;11525;51.152;4.456;2022-10-16T03:59:46;14.00;99.90
22716;DHT22;11525;51.152;4.456;2022-10-16T04:02:12;14.00;99.90
22716;DHT22;11525;51.152;4.456;2022-10-16T04:04:38;13.90;99.90
22716;DHT22;11525;51.152;4.456;2022-10-16T04:07:04;13.90;99.90
22716;DHT22;11525;51.152;4.456;2022-10-16T04:09:30;14.00;99.90
22716;DHT22;11525;51.152;4.456;2022-10-16T04:11:56;13.90;99.90
22716;DHT22;11525;51.152;4.456;2022-10-16T04:14:21;13.90;99.90
22716;DHT22;11525;51.152;4.456;2022-10-16T04:16:47;13.80;99.90
22716;DHT22;11525;51.152;4.456;2022-10-16T04:19:13;13.90;99.90
22716;DHT22;11525;51.152;4.456;2022-10-16T04:21:39;13.90;99.90
22716;DHT22;11525;51.152;4.456;2022-10-16T04:24:04;13.80;99.90
22716;DHT22;11525;51.152;4.456;2022-10-16T04:26:30;13.80;99.90
22716;DHT22;11525;51.152;4.456;2022-10-16T04:28:56;13.80;99.90
22716;DHT22;11525;51.152;4.456;2022-10-16T04:31:21;13.80;99.90
22716;DHT22;11525;51.152;4.456;2022-10-16T04:33:47;13.80;99.90
22716;DHT22;11525;51.152;4.456;2022-10-16T04:36:13;13.70;99.90
22716;DHT22;11525;51.152;4.456;2022-10-16T04:38:39;13.70;99.90
22716;DHT22;11525;51.152;4.456;2022-10-16T04:41:06;13.80;99.90
22716;DHT22;11525;51.152;4.456;2022-10-16T04:43:32;13.80;99.90
22716;DHT22;11525;51.152;4.456;2022-10-16T04:45:57;13.70;99.90
22716;DHT22;11525;51.152;4.456;2022-10-16T04:48:23;13.70;99.90
22716;DHT22;11525;51.152;4.456;2022-10-16T04:50:49;13.70;99.90
22716;DHT22;11525;51.152;4.456;2022-10-16T04:53:14;13.70;99.90
22716;DHT22;11525;51.152;4.456;2022-10-16T04:55:41;13.70;99.90
22716;DHT22;11525;51.152;4.456;2022-10-16T04:58:07;13.60;99.90
22716;DHT22;11525;51.152;4.456;2022-10-16T05:00:33;13.60;99.90
22716;DHT22;11525;51.152;4.456;2022-10-16T05:02:59;13.60;99.90
22716;DHT22;11525;51.152;4.456;2022-10-16T05:05:26;13.50;99.90
22716;DHT22;11525;51.152;4.456;2022-10-16T05:07:52;13.50;99.90
22716;DHT22;11525;51.152;4.456;2022-10-16T05:10:17;13.40;99.90
22716;DHT22;11525;51.152;4.456;2022-10-16T05:12:43;13.50;99.90
22716;DHT22;11525;51.152;4.456;2022-10-16T05:15:09;13.50;99.90
22716;DHT22;11525;51.152;4.456;2022-10-16T05:17:35;13.40;99.90
22716;DHT22;11525;51.152;4.456;2022-10-16T05:20:01;13.40;99.90
22716;DHT22;11525;51.152;4.456;2022-10-16T05:22:27;13.50;99.90
22716;DHT22;11525;51.152;4.456;2022-10-16T05:24:52;13.50;99.90
22716;DHT22;11525;51.152;4.456;2022-10-16T05:27:18;13.40;99.90
22716;DHT22;11525;51.152;4.456;2022-10-16T05:29:47;13.50;99.90
22716;DHT22;11525;51.152;4.456;2022-10-16T05:32:17;13.40;99.90
22716;DHT22;11525;51.152;4.456;2022-10-16T05:34:44;13.50;99.90
22716;DHT22;11525;51.152;4.456;2022-10-16T05:37:10;13.50;99.90
22716;DHT22;11525;51.152;4.456;2022-10-16T05:39:37;13.60;99.90
22716;DHT22;11525;51.152;4.456;2022-10-16T05:42:03;13.50;99.90
22716;DHT22;11525;51.152;4.456;2022-10-16T05:44:29;13.50;99.90
22716;DHT22;11525;51.152;4.456;2022-10-16T05:46:54;13.50;99.90
22716;DHT22;11525;51.152;4.456;2022-10-16T05:49:20;13.50;99.90
22716;DHT22;11525;51.152;4.456;2022-10-16T05:51:46;13.30;99.90
22716;DHT22;11525;51.152;4.456;2022-10-16T05:54:11;13.20;99.90
22716;DHT22;11525;51.152;4.456;2022-10-16T05:56:37;13.30;99.90
22716;DHT22;11525;51.152;4.456;2022-10-16T05:59:04;13.30;99.90
22716;DHT22;11525;51.152;4.456;2022-10-16T06:01:29;13.20;99.90
22716;DHT22;11525;51.152;4.456;2022-10-16T06:03:56;13.20;99.90
22716;DHT22;11525;51.152;4.456;2022-10-16T06:06:24;13.20;99.90
22716;DHT22;11525;51.152;4.456;2022-10-16T06:08:51;13.20;99.90
22716;DHT22;11525;51.152;4.456;2022-10-16T06:11:25;13.30;99.90
22716;DHT22;11525;51.152;4.456;2022-10-16T06:13:53;13.20;99.90
22716;DHT22;11525;51.152;4.456;2022-10-16T06:16:20;13.30;99.90
22716;DHT22;11525;51.152;4.456;2022-10-16T06:18:46;13.40;99.90
22716;DHT22;11525;51.152;4.456;2022-10-16T06:21:18;13.40;99.90
22716;DHT22;11525;51.152;4.456;2022-10-16T06:23:43;13.50;99.90
22716;DHT22;11525;51.152;4.456;2022-10-16T06:26:14;13.50;99.90
22716;DHT22;11525;51.152;4.456;2022-10-16T06:28:40;13.60;99.90
22716;DHT22;11525;51.152;4.456;2022-10-16T06:31:07;13.60;99.90
22716;DHT22;11525;51.152;4.456;2022-10-16T06:33:36;13.60;99.90
22716;DHT22;11525;51.152;4.456;2022-10-16T06:36:04;13.70;99.90
22716;DHT22;11525;51.152;4.456;2022-10-16T06:38:30;13.80;99.90
22716;DHT22;11525;51.152;4.456;2022-10-16T06:40:56;13.80;99.90
22716;DHT22;11525;51.152;4.456;2022-10-16T06:43:22;13.80;99.90
22716;DHT22;11525;51.152;4.456;2022-10-16T06:45:55;13.80;99.90
22716;DHT22;11525;51.152;4.456;2022-10-16T06:48:21;13.90;99.90
22716;DHT22;11525;51.152;4.456;2022-10-16T06:51:08;13.90;99.90
22716;DHT22;11525;51.152;4.456;2022-10-16T06:53:35;13.80;99.90
22716;DHT22;11525;51.152;4.456;2022-10-16T06:58:37;14.00;99.90
22716;DHT22;11525;51.152;4.456;2022-10-16T07:01:04;14.00;99.90
22716;DHT22;11525;51.152;4.456;2022-10-16T07:03:30;14.00;99.90
22716;DHT22;11525;51.152;4.456;2022-10-16T07:05:56;14.00;99.90
22716;DHT22;11525;51.152;4.456;2022-10-16T07:08:21;14.00;99.90
22716;DHT22;11525;51.152;4.456;2022-10-16T07:10:47;14.10;99.90
22716;DHT22;11525;51.152;4.456;2022-10-16T07:13:13;14.10;99.90
22716;DHT22;11525;51.152;4.456;2022-10-16T07:15:40;14.20;99.90
22716;DHT22;11525;51.152;4.456;2022-10-16T07:18:06;14.40;99.90
22716;DHT22;11525;51.152;4.456;2022-10-16T07:20:31;14.50;99.90
22716;DHT22;11525;51.152;4.456;2022-10-16T07:22:57;14.50;99.90
22716;DHT22;11525;51.152;4.456;2022-10-16T07:25:23;14.60;99.90
22716;DHT22;11525;51.152;4.456;2022-10-16T07:27:48;14.60;99.90
22716;DHT22;11525;51.152;4.456;2022-10-16T07:30:14;14.70;99.90
22716;DHT22;11525;51.152;4.456;2022-10-16T07:32:40;14.80;99.90
22716;DHT22;11525;51.152;4.456;2022-10-16T07:35:06;14.80;99.90
22716;DHT22;11525;51.152;4.456;2022-10-16T07:37:32;15.00;99.90
22716;DHT22;11525;51.152;4.456;2022-10-16T07:39:57;15.20;99.90
22716;DHT22;11525;51.152;4.456;2022-10-16T07:42:23;15.20;99.90
22716;DHT22;11525;51.152;4.456;2022-10-16T07:44:49;15.30;99.90
22716;DHT22;11525;51.152;4.456;2022-10-16T07:47:14;15.30;99.90
22716;DHT22;11525;51.152;4.456;2022-10-16T07:49:40;15.50;99.90
22716;DHT22;11525;51.152;4.456;2022-10-16T07:52:06;15.50;99.90
22716;DHT22;11525;51.152;4.456;2022-10-16T07:54:31;15.60;99.90
22716;DHT22;11525;51.152;4.456;2022-10-16T07:56:57;15.70;99.90
22716;DHT22;11525;51.152;4.456;2022-10-16T07:59:22;15.70;99.90
22716;DHT22;11525;51.152;4.456;2022-10-16T08:01:49;15.90;99.90
22716;DHT22;11525;51.152;4.456;2022-10-16T08:04:15;16.20;99.90
22716;DHT22;11525;51.152;4.456;2022-10-16T08:06:41;16.30;99.90
22716;DHT22;11525;51.152;4.456;2022-10-16T08:09:07;16.40;99.90
22716;DHT22;11525;51.152;4.456;2022-10-16T08:11:33;16.50;99.90
22716;DHT22;11525;51.152;4.456;2022-10-16T08:13:59;16.80;99.90
22716;DHT22;11525;51.152;4.456;2022-10-16T08:16:25;17.30;99.90
22716;DHT22;11525;51.152;4.456;2022-10-16T08:18:51;18.40;99.90
22716;DHT22;11525;51.152;4.456;2022-10-16T08:21:19;19.20;99.90
22716;DHT22;11525;51.152;4.456;2022-10-16T08:23:45;19.70;99.90
22716;DHT22;11525;51.152;4.456;2022-10-16T08:26:12;21.30;99.90
22716;DHT22;11525;51.152;4.456;2022-10-16T08:28:38;23.10;99.90
22716;DHT22;11525;51.152;4.456;2022-10-16T08:31:11;24.50;99.90
22716;DHT22;11525;51.152;4.456;2022-10-16T08:33:37;25.70;99.90
22716;DHT22;11525;51.152;4.456;2022-10-16T08:36:04;26.80;99.90
22716;DHT22;11525;51.152;4.456;2022-10-16T08:38:30;27.40;96.40
22716;DHT22;11525;51.152;4.456;2022-10-16T08:47:04;29.00;91.40
22716;DHT22;11525;51.152;4.456;2022-10-16T08:49:31;29.60;87.20
22716;DHT22;11525;51.152;4.456;2022-10-16T08:51:57;30.00;83.30
22716;DHT22;11525;51.152;4.456;2022-10-16T08:54:34;29.80;78.80
22716;DHT22;11525;51.152;4.456;2022-10-16T08:57:16;30.10;77.00
22716;DHT22;11525;51.152;4.456;2022-10-16T08:59:42;29.90;76.20
22716;DHT22;11525;51.152;4.456;2022-10-16T09:02:39;29.80;74.40
22716;DHT22;11525;51.152;4.456;2022-10-16T09:11:11;30.60;68.10
22716;DHT22;11525;51.152;4.456;2022-10-16T09:13:51;30.80;68.20
22716;DHT22;11525;51.152;4.456;2022-10-16T09:16:27;30.60;66.70
22716;DHT22;11525;51.152;4.456;2022-10-16T09:21:45;30.50;66.10
22716;DHT22;11525;51.152;4.456;2022-10-16T09:24:17;30.90;66.40
22716;DHT22;11525;51.152;4.456;2022-10-16T09:26:44;31.20;64.40
22716;DHT22;11525;51.152;4.456;2022-10-16T09:29:14;31.20;64.80
22716;DHT22;11525;51.152;4.456;2022-10-16T09:31:41;31.50;63.40
22716;DHT22;11525;51.152;4.456;2022-10-16T09:34:29;31.60;61.80
22716;DHT22;11525;51.152;4.456;2022-10-16T09:36:57;31.40;60.90
22716;DHT22;11525;51.152;4.456;2022-10-16T09:39:24;31.20;61.10
22716;DHT22;11525;51.152;4.456;2022-10-16T09:41:50;31.40;61.60
22716;DHT22;11525;51.152;4.456;2022-10-16T09:44:21;31.90;59.80
22716;DHT22;11525;51.152;4.456;2022-10-16T09:46:49;32.80;57.50
22716;DHT22;11525;51.152;4.456;2022-10-16T09:49:23;33.40;56.50
22716;DHT22;11525;51.152;4.456;2022-10-16T09:51:50;33.40;54.70
22716;DHT22;11525;51.152;4.456;2022-10-16T09:54:20;33.20;55.40
22716;DHT22;11525;51.152;4.456;2022-10-16T09:56:47;32.50;56.10
22716;DHT22;11525;51.152;4.456;2022-10-16T09:59:19;32.50;55.30
22716;DHT22;11525;51.152;4.456;2022-10-16T10:01:56;32.30;56.00
22716;DHT22;11525;51.152;4.456;2022-10-16T10:04:24;32.40;56.30
22716;DHT22;11525;51.152;4.456;2022-10-16T10:06:51;32.60;56.90
22716;DHT22;11525;51.152;4.456;2022-10-16T10:09:32;33.20;54.90
22716;DHT22;11525;51.152;4.456;2022-10-16T10:12:05;33.60;53.80
22716;DHT22;11525;51.152;4.456;2022-10-16T10:14:39;34.00;52.10
22716;DHT22;11525;51.152;4.456;2022-10-16T10:19:59;33.60;52.00
22716;DHT22;11525;51.152;4.456;2022-10-16T10:22:40;32.60;52.90
22716;DHT22;11525;51.152;4.456;2022-10-16T10:25:21;32.40;54.20
22716;DHT22;11525;51.152;4.456;2022-10-16T10:28:03;32.70;53.30
22716;DHT22;11525;51.152;4.456;2022-10-16T10:36:12;26.90;72.90
22716;DHT22;11525;51.152;4.456;2022-10-16T10:38:59;25.60;82.40
22716;DHT22;11525;51.152;4.456;2022-10-16T10:47:32;23.40;96.30
22716;DHT22;11525;51.152;4.456;2022-10-16T10:50:20;22.80;98.30
22716;DHT22;11525;51.152;4.456;2022-10-16T10:58:38;21.70;99.90
22716;DHT22;11525;51.152;4.456;2022-10-16T11:01:16;21.60;99.90
22716;DHT22;11525;51.152;4.456;2022-10-16T11:07:19;21.60;99.90
22716;DHT22;11525;51.152;4.456;2022-10-16T11:09:24;21.40;99.90
22716;DHT22;11525;51.152;4.456;2022-10-16T11:17:39;21.00;99.90
22716;DHT22;11525;51.152;4.456;2022-10-16T11:20:34;20.60;99.90
22716;DHT22;11525;51.152;4.456;2022-10-16T11:23:13;20.60;99.90
22716;DHT22;11525;51.152;4.456;2022-10-16T11:25:40;20.70;99.90
22716;DHT22;11525;51.152;4.456;2022-10-16T11:28:23;20.70;99.90
22716;DHT22;11525;51.152;4.456;2022-10-16T11:30:59;20.60;99.90
22716;DHT22;11525;51.152;4.456;2022-10-16T11:36:19;20.20;99.90
22716;DHT22;11525;51.152;4.456;2022-10-16T11:38:59;20.30;99.90
22716;DHT22;11525;51.152;4.456;2022-10-16T11:41:47;20.30;99.90
22716;DHT22;11525;51.152;4.456;2022-10-16T11:44:34;20.40;99.90
22716;DHT22;11525;51.152;4.456;2022-10-16T11:49:40;20.40;99.90
22716;DHT22;11525;51.152;4.456;2022-10-16T11:52:41;20.60;99.90
22716;DHT22;11525;51.152;4.456;2022-10-16T11:55:33;20.60;99.90
22716;DHT22;11525;51.152;4.456;2022-10-16T11:58:04;20.70;99.90
22716;DHT22;11525;51.152;4.456;2022-10-16T12:06:41;21.40;99.90
22716;DHT22;11525;51.152;4.456;2022-10-16T12:09:20;21.40;99.90
22716;DHT22;11525;51.152;4.456;2022-10-16T12:11:47;21.50;99.90
22716;DHT22;11525;51.152;4.456;2022-10-16T12:16:58;21.40;99.90
22716;DHT22;11525;51.152;4.456;2022-10-16T12:19:30;21.10;99.90
22716;DHT22;11525;51.152;4.456;2022-10-16T12:21:59;21.00;99.90
22716;DHT22;11525;51.152;4.456;2022-10-16T12:24:38;20.90;99.90
22716;DHT22;11525;51.152;4.456;2022-10-16T12:27:06;21.00;99.90
22716;DHT22;11525;51.152;4.456;2022-10-16T12:29:42;20.90;99.90
22716;DHT22;11525;51.152;4.456;2022-10-16T12:34:51;21.10;99.90
22716;DHT22;11525;51.152;4.456;2022-10-16T12:37:29;21.10;99.90
22716;DHT22;11525;51.152;4.456;2022-10-16T12:39:56;21.00;99.90
22716;DHT22;11525;51.152;4.456;2022-10-16T12:44:52;20.90;99.90
22716;DHT22;11525;51.152;4.456;2022-10-16T12:47:23;20.70;99.90
22716;DHT22;11525;51.152;4.456;2022-10-16T12:49:52;20.60;99.90
22716;DHT22;11525;51.152;4.456;2022-10-16T12:52:36;20.70;99.90
22716;DHT22;11525;51.152;4.456;2022-10-16T12:55:03;20.80;99.90
22716;DHT22;11525;51.152;4.456;2022-10-16T12:57:46;21.00;99.90
22716;DHT22;11525;51.152;4.456;2022-10-16T13:06:33;21.50;99.90
22716;DHT22;11525;51.152;4.456;2022-10-16T13:11:52;21.50;99.90
22716;DHT22;11525;51.152;4.456;2022-10-16T13:14:53;21.50;99.90
22716;DHT22;11525;51.152;4.456;2022-10-16T13:20:12;21.40;99.90
22716;DHT22;11525;51.152;4.456;2022-10-16T13:23:01;21.30;99.90
22716;DHT22;11525;51.152;4.456;2022-10-16T13:28:35;21.30;99.90
22716;DHT22;11525;51.152;4.456;2022-10-16T13:31:04;21.20;99.90
22716;DHT22;11525;51.152;4.456;2022-10-16T13:33:41;21.20;99.90
22716;DHT22;11525;51.152;4.456;2022-10-16T13:36:19;21.20;99.90
22716;DHT22;11525;51.152;4.456;2022-10-16T13:38:46;21.20;99.90
22716;DHT22;11525;51.152;4.456;2022-10-16T13:41:15;21.20;99.90
22716;DHT22;11525;51.152;4.456;2022-10-16T13:43:52;21.10;99.90
22716;DHT22;11525;51.152;4.456;2022-10-16T13:46:20;21.10;99.90
22716;DHT22;11525;51.152;4.456;2022-10-16T13:49:00;21.10;99.90
22716;DHT22;11525;51.152;4.456;2022-10-16T13:51:27;21.00;99.90
22716;DHT22;11525;51.152;4.456;2022-10-16T13:53:55;20.90;99.90
22716;DHT22;11525;51.152;4.456;2022-10-16T13:56:22;21.10;99.90
22716;DHT22;11525;51.152;4.456;2022-10-16T13:59:04;21.20;99.90
22716;DHT22;11525;51.152;4.456;2022-10-16T14:01:40;21.20;99.90
22716;DHT22;11525;51.152;4.456;2022-10-16T14:04:09;21.10;99.90
22716;DHT22;11525;51.152;4.456;2022-10-16T14:06:36;20.80;99.90
22716;DHT22;11525;51.152;4.456;2022-10-16T14:09:25;20.70;99.90
22716;DHT22;11525;51.152;4.456;2022-10-16T14:14:20;20.60;99.90
22716;DHT22;11525;51.152;4.456;2022-10-16T14:16:47;20.40;99.90
22716;DHT22;11525;51.152;4.456;2022-10-16T14:19:25;20.30;99.90
22716;DHT22;11525;51.152;4.456;2022-10-16T14:21:52;20.20;99.90
22716;DHT22;11525;51.152;4.456;2022-10-16T14:26:57;20.30;99.90
22716;DHT22;11525;51.152;4.456;2022-10-16T14:29:24;20.20;99.90
22716;DHT22;11525;51.152;4.456;2022-10-16T14:32:00;20.30;99.90
22716;DHT22;11525;51.152;4.456;2022-10-16T14:34:28;20.40;99.90
22716;DHT22;11525;51.152;4.456;2022-10-16T14:36:56;20.30;99.90
22716;DHT22;11525;51.152;4.456;2022-10-16T14:39:22;20.30;99.90
22716;DHT22;11525;51.152;4.456;2022-10-16T14:41:51;20.40;99.90
22716;DHT22;11525;51.152;4.456;2022-10-16T14:44:18;20.40;99.90
22716;DHT22;11525;51.152;4.456;2022-10-16T14:46:45;20.30;99.90
22716;DHT22;11525;51.152;4.456;2022-10-16T14:51:41;20.20;99.90
22716;DHT22;11525;51.152;4.456;2022-10-16T14:54:12;20.00;99.90
22716;DHT22;11525;51.152;4.456;2022-10-16T14:56:52;19.90;99.90
22716;DHT22;11525;51.152;4.456;2022-10-16T14:59:39;19.70;99.90
22716;DHT22;11525;51.152;4.456;2022-10-16T15:02:29;19.60;99.90
22716;DHT22;11525;51.152;4.456;2022-10-16T15:04:56;19.60;99.90
22716;DHT22;11525;51.152;4.456;2022-10-16T15:07:22;19.70;99.90
22716;DHT22;11525;51.152;4.456;2022-10-16T15:09:47;19.50;99.90
22716;DHT22;11525;51.152;4.456;2022-10-16T15:12:13;19.40;99.90
22716;DHT22;11525;51.152;4.456;2022-10-16T15:14:39;19.50;99.90
22716;DHT22;11525;51.152;4.456;2022-10-16T15:17:04;19.40;99.90
22716;DHT22;11525;51.152;4.456;2022-10-16T15:19:30;19.40;99.90
22716;DHT22;11525;51.152;4.456;2022-10-16T15:21:56;19.40;99.90
22716;DHT22;11525;51.152;4.456;2022-10-16T15:24:22;19.50;99.90
22716;DHT22;11525;51.152;4.456;2022-10-16T15:26:48;19.50;99.90
22716;DHT22;11525;51.152;4.456;2022-10-16T15:29:15;19.40;99.90
22716;DHT22;11525;51.152;4.456;2022-10-16T15:31:41;19.50;99.90
22716;DHT22;11525;51.152;4.456;2022-10-16T15:34:10;19.20;99.90
22716;DHT22;11525;51.152;4.456;2022-10-16T15:36:39;19.20;99.90
22716;DHT22;11525;51.152;4.456;2022-10-16T15:39:14;19.30;99.90
22716;DHT22;11525;51.152;4.456;2022-10-16T15:41:41;19.40;99.90
22716;DHT22;11525;51.152;4.456;2022-10-16T15:44:07;19.40;99.90
22716;DHT22;11525;51.152;4.456;2022-10-16T15:46:33;19.40;99.90
22716;DHT22;11525;51.152;4.456;2022-10-16T15:49:00;19.30;99.90
22716;DHT22;11525;51.152;4.456;2022-10-16T15:51:26;19.00;99.90
22716;DHT22;11525;51.152;4.456;2022-10-16T15:53:59;18.90;99.90
22716;DHT22;11525;51.152;4.456;2022-10-16T15:56:27;18.90;99.90
22716;DHT22;11525;51.152;4.456;2022-10-16T15:58:54;18.90;99.90
22716;DHT22;11525;51.152;4.456;2022-10-16T16:01:20;18.90;99.90
22716;DHT22;11525;51.152;4.456;2022-10-16T16:03:46;18.80;99.90
22716;DHT22;11525;51.152;4.456;2022-10-16T16:06:13;18.80;99.90
22716;DHT22;11525;51.152;4.456;2022-10-16T16:08:39;18.70;99.90
22716;DHT22;11525;51.152;4.456;2022-10-16T16:11:13;18.60;99.90
22716;DHT22;11525;51.152;4.456;2022-10-16T16:13:39;18.60;99.90
22716;DHT22;11525;51.152;4.456;2022-10-16T16:16:13;18.70;99.90
22716;DHT22;11525;51.152;4.456;2022-10-16T16:18:40;18.70;99.90
22716;DHT22;11525;51.152;4.456;2022-10-16T16:21:06;18.60;99.90
22716;DHT22;11525;51.152;4.456;2022-10-16T16:23:33;18.60;99.90
22716;DHT22;11525;51.152;4.456;2022-10-16T16:28:28;18.60;99.90
22716;DHT22;11525;51.152;4.456;2022-10-16T16:30:54;18.60;99.90
22716;DHT22;11525;51.152;4.456;2022-10-16T16:33:20;18.60;99.90
22716;DHT22;11525;51.152;4.456;2022-10-16T16:35:45;18.60;99.90
22716;DHT22;11525;51.152;4.456;2022-10-16T16:38:11;18.50;99.90
22716;DHT22;11525;51.152;4.456;2022-10-16T16:40:37;18.30;99.90
22716;DHT22;11525;51.152;4.456;2022-10-16T16:43:02;18.30;99.90
22716;DHT22;11525;51.152;4.456;2022-10-16T16:45:29;18.20;99.90
22716;DHT22;11525;51.152;4.456;2022-10-16T16:47:55;18.20;99.90
22716;DHT22;11525;51.152;4.456;2022-10-16T16:50:20;18.20;99.90
22716;DHT22;11525;51.152;4.456;2022-10-16T16:52:46;18.10;99.90
22716;DHT22;11525;51.152;4.456;2022-10-16T16:55:11;18.10;99.90
22716;DHT22;11525;51.152;4.456;2022-10-16T16:57:37;18.00;99.90
22716;DHT22;11525;51.152;4.456;2022-10-16T17:00:03;17.90;99.90
22716;DHT22;11525;51.152;4.456;2022-10-16T17:02:29;17.80;99.90
22716;DHT22;11525;51.152;4.456;2022-10-16T17:04:55;17.90;99.90
22716;DHT22;11525;51.152;4.456;2022-10-16T17:07:22;17.90;99.90
22716;DHT22;11525;51.152;4.456;2022-10-16T17:09:50;17.90;99.90
22716;DHT22;11525;51.152;4.456;2022-10-16T17:12:16;17.80;99.90
22716;DHT22;11525;51.152;4.456;2022-10-16T17:14:41;17.90;99.90
22716;DHT22;11525;51.152;4.456;2022-10-16T17:17:07;17.90;99.90
22716;DHT22;11525;51.152;4.456;2022-10-16T17:19:32;17.80;99.90
22716;DHT22;11525;51.152;4.456;2022-10-16T17:21:59;17.80;99.90
22716;DHT22;11525;51.152;4.456;2022-10-16T17:24:25;17.80;99.90
22716;DHT22;11525;51.152;4.456;2022-10-16T17:26:51;17.80;99.90
22716;DHT22;11525;51.152;4.456;2022-10-16T17:29:17;17.80;99.90
22716;DHT22;11525;51.152;4.456;2022-10-16T17:31:44;17.80;99.90